sensor_id;sensor_type;location;lat;lon;timestamp;temperature;humidity
46508;DHT22;32223;53.654;10.014;2023-05-10T00:01:56;13.50;98.70
46508;DHT22;32223;53.654;10.014;2023-05-10T00:04:21;13.40;99.30
46508;DHT22;32223;53.654;10.014;2023-05-10T00:06:47;13.40;99.30
46508;DHT22;32223;53.654;10.014;2023-05-10T00:09:13;13.40;99.80
46508;DHT22;32223;53.654;10.014;2023-05-10T00:11:38;13.40;99.90
46508;DHT22;32223;53.654;10.014;2023-05-10T00:14:04;13.40;99.90
46508;DHT22;32223;53.654;10.014;2023-05-10T00:16:30;13.30;99.90
46508;DHT22;32223;53.654;10.014;2023-05-10T00:18:55;13.30;99.90
46508;DHT22;32223;53.654;10.014;2023-05-10T00:21:21;13.20;99.90
46508;DHT22;32223;53.654;10.014;2023-05-10T00:23:47;13.30;99.90
46508;DHT22;32223;53.654;10.014;2023-05-10T00:26:12;13.20;99.90
46508;DHT22;32223;53.654;10.014;2023-05-10T00:28:38;13.20;99.90
46508;DHT22;32223;53.654;10.014;2023-05-10T00:31:04;13.20;99.90
46508;DHT22;32223;53.654;10.014;2023-05-10T00:33:29;13.10;99.90
46508;DHT22;32223;53.654;10.014;2023-05-10T00:35:55;13.10;99.90
46508;DHT22;32223;53.654;10.014;2023-05-10T00:38:21;13.10;99.90
46508;DHT22;32223;53.654;10.014;2023-05-10T00:40:47;13.00;99.90
46508;DHT22;32223;53.654;10.014;2023-05-10T00:43:12;13.00;99.90
46508;DHT22;32223;53.654;10.014;2023-05-10T00:45:40;12.90;99.90
46508;DHT22;32223;53.654;10.014;2023-05-10T00:48:05;12.90;99.90
46508;DHT22;32223;53.654;10.014;2023-05-10T00:50:32;12.90;99.90
46508;DHT22;32223;53.654;10.014;2023-05-10T00:52:59;12.90;99.90
46508;DHT22;32223;53.654;10.014;2023-05-10T00:55:25;12.90;99.90
46508;DHT22;32223;53.654;10.014;2023-05-10T00:57:52;12.90;99.90
46508;DHT22;32223;53.654;10.014;2023-05-10T01:00:18;12.90;99.90
46508;DHT22;32223;53.654;10.014;2023-05-10T01:02:47;12.80;99.90
46508;DHT22;32223;53.654;10.014;2023-05-10T01:05:13;12.80;99.90
46508;DHT22;32223;53.654;10.014;2023-05-10T01:07:39;12.80;99.90
46508;DHT22;32223;53.654;10.014;2023-05-10T01:10:08;12.70;99.90
46508;DHT22;32223;53.654;10.014;2023-05-10T01:12:39;12.70;99.90
46508;DHT22;32223;53.654;10.014;2023-05-10T01:15:07;12.60;99.90
46508;DHT22;32223;53.654;10.014;2023-05-10T01:17:34;12.60;99.90
46508;DHT22;32223;53.654;10.014;2023-05-10T01:20:01;12.50;99.90
46508;DHT22;32223;53.654;10.014;2023-05-10T01:36:23;12.30;99.90
46508;DHT22;32223;53.654;10.014;2023-05-10T01:39:01;12.30;99.90
46508;DHT22;32223;53.654;10.014;2023-05-10T01:44:24;12.20;99.90
46508;DHT22;32223;53.654;10.014;2023-05-10T01:46:55;12.20;99.90
46508;DHT22;32223;53.654;10.014;2023-05-10T01:49:30;12.20;99.90
46508;DHT22;32223;53.654;10.014;2023-05-10T01:52:00;12.20;99.90
46508;DHT22;32223;53.654;10.014;2023-05-10T01:54:29;12.10;99.90
46508;DHT22;32223;53.654;10.014;2023-05-10T01:57:00;12.10;99.90
46508;DHT22;32223;53.654;10.014;2023-05-10T01:59:35;12.10;99.90
46508;DHT22;32223;53.654;10.014;2023-05-10T02:02:02;12.00;99.90
46508;DHT22;32223;53.654;10.014;2023-05-10T02:04:30;12.00;99.90
46508;DHT22;32223;53.654;10.014;2023-05-10T02:06:57;12.00;99.90
46508;DHT22;32223;53.654;10.014;2023-05-10T02:09:24;12.00;99.90
46508;DHT22;32223;53.654;10.014;2023-05-10T02:11:51;11.90;99.90
46508;DHT22;32223;53.654;10.014;2023-05-10T02:14:18;11.90;99.90
46508;DHT22;32223;53.654;10.014;2023-05-10T02:16:45;11.80;99.90
46508;DHT22;32223;53.654;10.014;2023-05-10T02:19:12;11.80;99.90
46508;DHT22;32223;53.654;10.014;2023-05-10T02:21:40;11.80;99.90
46508;DHT22;32223;53.654;10.014;2023-05-10T02:24:07;11.80;99.90
46508;DHT22;32223;53.654;10.014;2023-05-10T02:26:35;11.70;99.90
46508;DHT22;32223;53.654;10.014;2023-05-10T02:29:03;11.70;99.90
46508;DHT22;32223;53.654;10.014;2023-05-10T02:31:33;11.60;99.90
46508;DHT22;32223;53.654;10.014;2023-05-10T02:34:01;11.60;99.90
46508;DHT22;32223;53.654;10.014;2023-05-10T02:36:28;11.60;99.90
46508;DHT22;32223;53.654;10.014;2023-05-10T02:38:55;11.60;99.90
46508;DHT22;32223;53.654;10.014;2023-05-10T02:41:22;11.60;99.90
46508;DHT22;32223;53.654;10.014;2023-05-10T02:43:50;11.50;99.90
46508;DHT22;32223;53.654;10.014;2023-05-10T02:46:18;11.50;99.90
46508;DHT22;32223;53.654;10.014;2023-05-10T02:48:44;11.50;99.90
46508;DHT22;32223;53.654;10.014;2023-05-10T02:51:12;11.50;99.90
46508;DHT22;32223;53.654;10.014;2023-05-10T02:53:41;11.40;99.90
46508;DHT22;32223;53.654;10.014;2023-05-10T02:56:33;11.40;99.90
46508;DHT22;32223;53.654;10.014;2023-05-10T02:58:57;11.50;99.90
46508;DHT22;32223;53.654;10.014;2023-05-10T03:01:23;11.40;99.90
46508;DHT22;32223;53.654;10.014;2023-05-10T03:03:49;11.30;99.90
46508;DHT22;32223;53.654;10.014;2023-05-10T03:06:14;11.40;99.90
46508;DHT22;32223;53.654;10.014;2023-05-10T03:08:42;11.30;99.90
46508;DHT22;32223;53.654;10.014;2023-05-10T03:14:21;11.20;99.90
46508;DHT22;32223;53.654;10.014;2023-05-10T03:16:58;11.20;99.90
46508;DHT22;32223;53.654;10.014;2023-05-10T03:19:43;11.30;99.90
46508;DHT22;32223;53.654;10.014;2023-05-10T03:22:13;11.20;99.90
46508;DHT22;32223;53.654;10.014;2023-05-10T03:24:42;11.20;99.90
46508;DHT22;32223;53.654;10.014;2023-05-10T03:27:08;11.30;99.90
46508;DHT22;32223;53.654;10.014;2023-05-10T03:29:35;11.30;99.90
46508;DHT22;32223;53.654;10.014;2023-05-10T03:32:01;11.30;99.90
46508;DHT22;32223;53.654;10.014;2023-05-10T03:34:30;11.40;99.90
46508;DHT22;32223;53.654;10.014;2023-05-10T03:36:57;11.40;99.90
46508;DHT22;32223;53.654;10.014;2023-05-10T03:39:22;11.40;99.90
46508;DHT22;32223;53.654;10.014;2023-05-10T03:41:48;11.50;99.90
46508;DHT22;32223;53.654;10.014;2023-05-10T03:44:13;11.40;99.90
46508;DHT22;32223;53.654;10.014;2023-05-10T03:46:39;11.40;99.90
46508;DHT22;32223;53.654;10.014;2023-05-10T03:49:04;11.50;99.90
46508;DHT22;32223;53.654;10.014;2023-05-10T03:51:30;11.50;99.90
46508;DHT22;32223;53.654;10.014;2023-05-10T03:53:56;11.50;99.90
46508;DHT22;32223;53.654;10.014;2023-05-10T03:56:22;11.50;99.90
46508;DHT22;32223;53.654;10.014;2023-05-10T03:58:48;11.60;99.90
46508;DHT22;32223;53.654;10.014;2023-05-10T04:01:13;11.60;99.90
46508;DHT22;32223;53.654;10.014;2023-05-10T04:03:39;11.60;99.90
46508;DHT22;32223;53.654;10.014;2023-05-10T04:06:05;11.60;99.90
46508;DHT22;32223;53.654;10.014;2023-05-10T04:08:31;11.60;99.90
46508;DHT22;32223;53.654;10.014;2023-05-10T04:11:10;11.70;99.90
46508;DHT22;32223;53.654;10.014;2023-05-10T04:13:37;11.60;99.90
46508;DHT22;32223;53.654;10.014;2023-05-10T04:16:03;11.70;99.90
46508;DHT22;32223;53.654;10.014;2023-05-10T04:18:30;11.70;99.90
46508;DHT22;32223;53.654;10.014;2023-05-10T04:20:56;11.70;99.90
46508;DHT22;32223;53.654;10.014;2023-05-10T04:23:21;11.80;99.90
46508;DHT22;32223;53.654;10.014;2023-05-10T04:25:47;11.80;99.90
46508;DHT22;32223;53.654;10.014;2023-05-10T04:28:12;11.80;99.90
46508;DHT22;32223;53.654;10.014;2023-05-10T04:30:39;11.90;99.90
46508;DHT22;32223;53.654;10.014;2023-05-10T04:33:05;11.90;99.90
46508;DHT22;32223;53.654;10.014;2023-05-10T04:35:31;11.90;99.90
46508;DHT22;32223;53.654;10.014;2023-05-10T04:37:56;11.90;99.90
46508;DHT22;32223;53.654;10.014;2023-05-10T04:40:22;11.90;99.90
46508;DHT22;32223;53.654;10.014;2023-05-10T04:42:48;11.90;99.90
46508;DHT22;32223;53.654;10.014;2023-05-10T04:45:13;11.90;99.90
46508;DHT22;32223;53.654;10.014;2023-05-10T04:47:42;11.90;99.90
46508;DHT22;32223;53.654;10.014;2023-05-10T04:50:08;12.00;99.90
46508;DHT22;32223;53.654;10.014;2023-05-10T04:52:33;12.00;99.90
46508;DHT22;32223;53.654;10.014;2023-05-10T04:54:59;12.00;99.90
46508;DHT22;32223;53.654;10.014;2023-05-10T04:57:24;12.10;99.90
46508;DHT22;32223;53.654;10.014;2023-05-10T04:59:50;12.00;99.90
46508;DHT22;32223;53.654;10.014;2023-05-10T05:02:16;12.10;99.90
46508;DHT22;32223;53.654;10.014;2023-05-10T05:04:42;12.20;99.90
46508;DHT22;32223;53.654;10.014;2023-05-10T05:07:07;12.30;99.90
46508;DHT22;32223;53.654;10.014;2023-05-10T05:09:33;12.30;99.90
46508;DHT22;32223;53.654;10.014;2023-05-10T05:11:58;12.40;99.90
46508;DHT22;32223;53.654;10.014;2023-05-10T05:14:24;12.60;99.90
46508;DHT22;32223;53.654;10.014;2023-05-10T05:16:53;12.70;99.90
46508;DHT22;32223;53.654;10.014;2023-05-10T05:19:18;12.70;99.90
46508;DHT22;32223;53.654;10.014;2023-05-10T05:21:44;12.80;99.90
46508;DHT22;32223;53.654;10.014;2023-05-10T05:24:10;12.90;99.90
46508;DHT22;32223;53.654;10.014;2023-05-10T05:26:37;12.90;99.90
46508;DHT22;32223;53.654;10.014;2023-05-10T05:29:03;12.90;99.90
46508;DHT22;32223;53.654;10.014;2023-05-10T05:31:29;13.00;99.90
46508;DHT22;32223;53.654;10.014;2023-05-10T05:33:54;13.00;99.90
46508;DHT22;32223;53.654;10.014;2023-05-10T05:36:21;13.20;99.90
46508;DHT22;32223;53.654;10.014;2023-05-10T05:38:46;13.20;99.90
46508;DHT22;32223;53.654;10.014;2023-05-10T05:41:12;13.40;99.90
46508;DHT22;32223;53.654;10.014;2023-05-10T05:43:37;13.50;99.90
46508;DHT22;32223;53.654;10.014;2023-05-10T05:46:03;13.60;99.90
46508;DHT22;32223;53.654;10.014;2023-05-10T05:48:30;13.70;99.90
46508;DHT22;32223;53.654;10.014;2023-05-10T05:50:56;13.80;99.90
46508;DHT22;32223;53.654;10.014;2023-05-10T05:53:22;13.90;99.90
46508;DHT22;32223;53.654;10.014;2023-05-10T05:55:55;14.00;99.90
46508;DHT22;32223;53.654;10.014;2023-05-10T05:58:22;14.10;99.90
46508;DHT22;32223;53.654;10.014;2023-05-10T06:00:48;14.20;99.90
46508;DHT22;32223;53.654;10.014;2023-05-10T06:03:13;14.30;99.90
46508;DHT22;32223;53.654;10.014;2023-05-10T06:05:39;14.40;99.90
46508;DHT22;32223;53.654;10.014;2023-05-10T06:08:06;14.50;99.90
46508;DHT22;32223;53.654;10.014;2023-05-10T06:10:32;14.70;99.90
46508;DHT22;32223;53.654;10.014;2023-05-10T06:12:57;14.70;99.90
46508;DHT22;32223;53.654;10.014;2023-05-10T06:15:23;14.80;99.90
46508;DHT22;32223;53.654;10.014;2023-05-10T06:17:48;14.80;99.90
46508;DHT22;32223;53.654;10.014;2023-05-10T06:20:17;15.00;99.90
46508;DHT22;32223;53.654;10.014;2023-05-10T06:22:42;15.10;99.90
46508;DHT22;32223;53.654;10.014;2023-05-10T06:25:08;15.10;99.90
46508;DHT22;32223;53.654;10.014;2023-05-10T06:27:34;15.20;99.90
46508;DHT22;32223;53.654;10.014;2023-05-10T06:30:00;15.30;99.90
46508;DHT22;32223;53.654;10.014;2023-05-10T06:32:25;15.50;99.90
46508;DHT22;32223;53.654;10.014;2023-05-10T06:34:51;15.50;99.90
46508;DHT22;32223;53.654;10.014;2023-05-10T06:37:17;15.60;99.90
46508;DHT22;32223;53.654;10.014;2023-05-10T06:39:43;15.70;99.90
46508;DHT22;32223;53.654;10.014;2023-05-10T06:42:08;15.70;99.90
46508;DHT22;32223;53.654;10.014;2023-05-10T06:44:34;15.70;99.90
46508;DHT22;32223;53.654;10.014;2023-05-10T06:47:00;15.70;99.90
46508;DHT22;32223;53.654;10.014;2023-05-10T06:49:25;15.70;99.90
46508;DHT22;32223;53.654;10.014;2023-05-10T06:51:51;15.70;99.90
46508;DHT22;32223;53.654;10.014;2023-05-10T06:54:17;15.80;99.90
46508;DHT22;32223;53.654;10.014;2023-05-10T06:56:43;15.90;99.90
46508;DHT22;32223;53.654;10.014;2023-05-10T06:59:08;16.00;99.90
46508;DHT22;32223;53.654;10.014;2023-05-10T07:01:34;16.00;99.90
46508;DHT22;32223;53.654;10.014;2023-05-10T07:04:00;15.90;99.90
46508;DHT22;32223;53.654;10.014;2023-05-10T07:06:25;15.90;99.90
46508;DHT22;32223;53.654;10.014;2023-05-10T07:08:51;16.00;99.90
46508;DHT22;32223;53.654;10.014;2023-05-10T07:11:17;16.20;99.90
46508;DHT22;32223;53.654;10.014;2023-05-10T07:13:42;16.20;99.90
46508;DHT22;32223;53.654;10.014;2023-05-10T07:16:09;16.30;99.90
46508;DHT22;32223;53.654;10.014;2023-05-10T07:18:35;16.30;99.90
46508;DHT22;32223;53.654;10.014;2023-05-10T07:21:01;16.30;99.90
46508;DHT22;32223;53.654;10.014;2023-05-10T07:23:27;16.40;99.90
46508;DHT22;32223;53.654;10.014;2023-05-10T07:25:53;16.40;99.90
46508;DHT22;32223;53.654;10.014;2023-05-10T07:28:19;16.50;99.90
46508;DHT22;32223;53.654;10.014;2023-05-10T07:30:45;16.60;99.90
46508;DHT22;32223;53.654;10.014;2023-05-10T07:33:13;16.80;99.90
46508;DHT22;32223;53.654;10.014;2023-05-10T07:35:39;16.90;99.90
46508;DHT22;32223;53.654;10.014;2023-05-10T07:38:05;16.90;99.90
46508;DHT22;32223;53.654;10.014;2023-05-10T07:40:31;17.00;99.90
46508;DHT22;32223;53.654;10.014;2023-05-10T07:42:56;17.10;99.90
46508;DHT22;32223;53.654;10.014;2023-05-10T07:45:22;17.10;99.90
46508;DHT22;32223;53.654;10.014;2023-05-10T07:47:48;17.10;99.90
46508;DHT22;32223;53.654;10.014;2023-05-10T07:50:14;17.20;99.90
46508;DHT22;32223;53.654;10.014;2023-05-10T07:52:40;17.20;99.90
46508;DHT22;32223;53.654;10.014;2023-05-10T07:55:06;17.20;99.90
46508;DHT22;32223;53.654;10.014;2023-05-10T07:57:33;17.30;99.90
46508;DHT22;32223;53.654;10.014;2023-05-10T07:59:59;17.40;99.90
46508;DHT22;32223;53.654;10.014;2023-05-10T08:02:24;17.50;99.90
46508;DHT22;32223;53.654;10.014;2023-05-10T08:04:50;17.40;99.90
46508;DHT22;32223;53.654;10.014;2023-05-10T08:07:17;17.40;99.90
46508;DHT22;32223;53.654;10.014;2023-05-10T08:09:42;17.40;99.90
46508;DHT22;32223;53.654;10.014;2023-05-10T08:12:08;17.30;99.90
46508;DHT22;32223;53.654;10.014;2023-05-10T08:14:34;17.30;99.90
46508;DHT22;32223;53.654;10.014;2023-05-10T08:17:02;17.20;99.90
46508;DHT22;32223;53.654;10.014;2023-05-10T08:19:27;17.20;99.90
46508;DHT22;32223;53.654;10.014;2023-05-10T08:21:53;17.20;99.90
46508;DHT22;32223;53.654;10.014;2023-05-10T08:24:21;17.30;99.90
46508;DHT22;32223;53.654;10.014;2023-05-10T08:26:47;17.30;99.90
46508;DHT22;32223;53.654;10.014;2023-05-10T08:29:13;17.40;99.90
46508;DHT22;32223;53.654;10.014;2023-05-10T08:31:39;17.40;99.90
46508;DHT22;32223;53.654;10.014;2023-05-10T08:34:04;17.50;99.90
46508;DHT22;32223;53.654;10.014;2023-05-10T08:36:30;17.60;99.90
46508;DHT22;32223;53.654;10.014;2023-05-10T08:38:57;17.70;99.90
46508;DHT22;32223;53.654;10.014;2023-05-10T08:41:24;17.70;99.90
46508;DHT22;32223;53.654;10.014;2023-05-10T08:43:51;17.70;99.90
46508;DHT22;32223;53.654;10.014;2023-05-10T08:46:19;17.70;99.90
46508;DHT22;32223;53.654;10.014;2023-05-10T08:48:46;17.70;99.90
46508;DHT22;32223;53.654;10.014;2023-05-10T08:51:17;17.80;99.90
46508;DHT22;32223;53.654;10.014;2023-05-10T08:53:44;17.80;99.90
46508;DHT22;32223;53.654;10.014;2023-05-10T08:56:11;17.70;99.90
46508;DHT22;32223;53.654;10.014;2023-05-10T08:58:38;17.70;99.90
46508;DHT22;32223;53.654;10.014;2023-05-10T09:01:05;17.80;99.90
46508;DHT22;32223;53.654;10.014;2023-05-10T09:03:31;17.80;99.90
46508;DHT22;32223;53.654;10.014;2023-05-10T09:05:57;17.80;99.90
46508;DHT22;32223;53.654;10.014;2023-05-10T09:08:23;17.90;99.90
46508;DHT22;32223;53.654;10.014;2023-05-10T09:10:52;18.10;99.90
46508;DHT22;32223;53.654;10.014;2023-05-10T09:13:19;18.20;99.90
46508;DHT22;32223;53.654;10.014;2023-05-10T09:15:46;18.30;99.90
46508;DHT22;32223;53.654;10.014;2023-05-10T09:18:12;18.40;99.90
46508;DHT22;32223;53.654;10.014;2023-05-10T09:20:38;18.50;99.90
46508;DHT22;32223;53.654;10.014;2023-05-10T09:23:04;18.50;99.90
46508;DHT22;32223;53.654;10.014;2023-05-10T09:25:30;18.50;99.90
46508;DHT22;32223;53.654;10.014;2023-05-10T09:27:58;18.40;99.90
46508;DHT22;32223;53.654;10.014;2023-05-10T09:32:51;18.30;99.90
46508;DHT22;32223;53.654;10.014;2023-05-10T09:35:18;18.40;99.90
46508;DHT22;32223;53.654;10.014;2023-05-10T09:37:46;18.50;99.90
46508;DHT22;32223;53.654;10.014;2023-05-10T09:40:18;18.50;99.90
46508;DHT22;32223;53.654;10.014;2023-05-10T09:42:56;18.30;99.90
46508;DHT22;32223;53.654;10.014;2023-05-10T09:45:30;18.20;99.90
46508;DHT22;32223;53.654;10.014;2023-05-10T09:47:57;18.00;99.90
46508;DHT22;32223;53.654;10.014;2023-05-10T09:50:23;17.90;99.90
46508;DHT22;32223;53.654;10.014;2023-05-10T09:52:55;18.00;99.90
46508;DHT22;32223;53.654;10.014;2023-05-10T09:55:43;17.80;99.90
46508;DHT22;32223;53.654;10.014;2023-05-10T09:58:10;17.70;99.90
46508;DHT22;32223;53.654;10.014;2023-05-10T10:00:40;17.60;99.90
46508;DHT22;32223;53.654;10.014;2023-05-10T10:03:11;17.60;99.90
46508;DHT22;32223;53.654;10.014;2023-05-10T10:05:40;17.60;99.90
46508;DHT22;32223;53.654;10.014;2023-05-10T10:08:06;17.70;99.90
46508;DHT22;32223;53.654;10.014;2023-05-10T10:10:33;17.70;99.90
46508;DHT22;32223;53.654;10.014;2023-05-10T10:12:59;17.60;99.90
46508;DHT22;32223;53.654;10.014;2023-05-10T10:15:25;17.50;99.90
46508;DHT22;32223;53.654;10.014;2023-05-10T10:17:52;17.20;99.90
46508;DHT22;32223;53.654;10.014;2023-05-10T10:20:19;17.00;99.90
46508;DHT22;32223;53.654;10.014;2023-05-10T10:22:45;16.70;99.90
46508;DHT22;32223;53.654;10.014;2023-05-10T10:25:12;16.40;99.90
46508;DHT22;32223;53.654;10.014;2023-05-10T10:35:31;15.60;99.90
46508;DHT22;32223;53.654;10.014;2023-05-10T10:37:57;15.30;99.90
46508;DHT22;32223;53.654;10.014;2023-05-10T10:40:31;15.20;99.90
46508;DHT22;32223;53.654;10.014;2023-05-10T10:42:57;15.20;99.90
46508;DHT22;32223;53.654;10.014;2023-05-10T10:45:24;15.10;99.90
46508;DHT22;32223;53.654;10.014;2023-05-10T10:48:21;15.20;99.90
46508;DHT22;32223;53.654;10.014;2023-05-10T10:50:47;15.00;99.90
46508;DHT22;32223;53.654;10.014;2023-05-10T10:53:21;15.00;99.90
46508;DHT22;32223;53.654;10.014;2023-05-10T10:55:47;15.00;99.90
46508;DHT22;32223;53.654;10.014;2023-05-10T10:58:29;15.10;99.90
46508;DHT22;32223;53.654;10.014;2023-05-10T11:01:15;15.20;99.90
46508;DHT22;32223;53.654;10.014;2023-05-10T11:06:33;15.40;99.90
46508;DHT22;32223;53.654;10.014;2023-05-10T11:08:59;15.50;99.90
46508;DHT22;32223;53.654;10.014;2023-05-10T11:11:30;15.50;99.90
46508;DHT22;32223;53.654;10.014;2023-05-10T11:14:06;15.60;99.90
46508;DHT22;32223;53.654;10.014;2023-05-10T11:16:51;15.50;99.90
46508;DHT22;32223;53.654;10.014;2023-05-10T11:19:17;15.50;99.90
46508;DHT22;32223;53.654;10.014;2023-05-10T11:24:28;15.60;99.90
46508;DHT22;32223;53.654;10.014;2023-05-10T11:26:54;15.70;99.90
46508;DHT22;32223;53.654;10.014;2023-05-10T11:29:19;15.70;99.90
46508;DHT22;32223;53.654;10.014;2023-05-10T11:31:46;15.80;99.90
46508;DHT22;32223;53.654;10.014;2023-05-10T11:34:26;15.80;99.90
46508;DHT22;32223;53.654;10.014;2023-05-10T11:36:53;15.80;99.90
46508;DHT22;32223;53.654;10.014;2023-05-10T11:39:20;15.70;99.90
46508;DHT22;32223;53.654;10.014;2023-05-10T11:41:48;15.60;99.90
46508;DHT22;32223;53.654;10.014;2023-05-10T11:44:14;15.60;99.90
46508;DHT22;32223;53.654;10.014;2023-05-10T11:46:40;15.70;99.90
46508;DHT22;32223;53.654;10.014;2023-05-10T11:49:07;15.80;99.90
46508;DHT22;32223;53.654;10.014;2023-05-10T11:51:36;15.90;99.90
46508;DHT22;32223;53.654;10.014;2023-05-10T11:54:06;16.00;99.90
46508;DHT22;32223;53.654;10.014;2023-05-10T11:56:33;16.00;99.90
46508;DHT22;32223;53.654;10.014;2023-05-10T11:59:00;16.00;99.90
46508;DHT22;32223;53.654;10.014;2023-05-10T12:01:27;16.00;99.90
46508;DHT22;32223;53.654;10.014;2023-05-10T12:03:55;15.90;99.90
46508;DHT22;32223;53.654;10.014;2023-05-10T12:06:27;15.90;99.90
46508;DHT22;32223;53.654;10.014;2023-05-10T12:08:54;15.80;99.90
46508;DHT22;32223;53.654;10.014;2023-05-10T12:11:20;15.70;99.90
46508;DHT22;32223;53.654;10.014;2023-05-10T12:13:50;15.70;99.90
46508;DHT22;32223;53.654;10.014;2023-05-10T12:16:20;15.80;99.90
46508;DHT22;32223;53.654;10.014;2023-05-10T12:18:53;16.00;99.90
46508;DHT22;32223;53.654;10.014;2023-05-10T12:21:22;16.10;99.90
46508;DHT22;32223;53.654;10.014;2023-05-10T12:23:53;16.20;99.90
46508;DHT22;32223;53.654;10.014;2023-05-10T12:26:22;16.20;99.90
46508;DHT22;32223;53.654;10.014;2023-05-10T12:28:48;16.10;99.90
46508;DHT22;32223;53.654;10.014;2023-05-10T12:31:13;16.10;99.90
46508;DHT22;32223;53.654;10.014;2023-05-10T12:33:43;16.10;99.90
46508;DHT22;32223;53.654;10.014;2023-05-10T12:36:23;16.00;99.90
46508;DHT22;32223;53.654;10.014;2023-05-10T12:38:49;15.90;99.90
46508;DHT22;32223;53.654;10.014;2023-05-10T12:41:16;16.00;99.90
46508;DHT22;32223;53.654;10.014;2023-05-10T12:43:42;16.20;99.90
46508;DHT22;32223;53.654;10.014;2023-05-10T12:46:12;16.30;99.90
46508;DHT22;32223;53.654;10.014;2023-05-10T12:48:41;16.40;99.90
46508;DHT22;32223;53.654;10.014;2023-05-10T12:51:07;16.50;99.90
46508;DHT22;32223;53.654;10.014;2023-05-10T12:53:42;16.60;99.90
46508;DHT22;32223;53.654;10.014;2023-05-10T12:56:08;16.70;99.90
46508;DHT22;32223;53.654;10.014;2023-05-10T12:58:34;16.90;99.90
46508;DHT22;32223;53.654;10.014;2023-05-10T13:00:59;17.00;99.90
46508;DHT22;32223;53.654;10.014;2023-05-10T13:03:25;17.00;99.90
46508;DHT22;32223;53.654;10.014;2023-05-10T13:05:51;17.00;99.90
46508;DHT22;32223;53.654;10.014;2023-05-10T13:08:16;17.10;99.90
46508;DHT22;32223;53.654;10.014;2023-05-10T13:10:42;17.10;99.90
46508;DHT22;32223;53.654;10.014;2023-05-10T13:13:08;17.40;99.90
46508;DHT22;32223;53.654;10.014;2023-05-10T13:15:34;17.50;99.90
46508;DHT22;32223;53.654;10.014;2023-05-10T13:17:59;17.50;99.90
46508;DHT22;32223;53.654;10.014;2023-05-10T13:20:26;17.60;99.90
46508;DHT22;32223;53.654;10.014;2023-05-10T13:22:52;17.60;99.90
46508;DHT22;32223;53.654;10.014;2023-05-10T13:25:18;17.70;99.90
46508;DHT22;32223;53.654;10.014;2023-05-10T13:27:43;17.80;99.90
46508;DHT22;32223;53.654;10.014;2023-05-10T13:30:09;17.90;99.90
46508;DHT22;32223;53.654;10.014;2023-05-10T13:32:36;18.00;99.90
46508;DHT22;32223;53.654;10.014;2023-05-10T13:35:02;18.10;99.90
46508;DHT22;32223;53.654;10.014;2023-05-10T13:37:31;18.20;99.90
46508;DHT22;32223;53.654;10.014;2023-05-10T13:39:57;18.30;99.90
46508;DHT22;32223;53.654;10.014;2023-05-10T13:42:23;18.40;99.90
46508;DHT22;32223;53.654;10.014;2023-05-10T13:44:50;18.60;99.90
46508;DHT22;32223;53.654;10.014;2023-05-10T13:47:15;18.80;99.90
46508;DHT22;32223;53.654;10.014;2023-05-10T13:49:41;18.80;99.90
46508;DHT22;32223;53.654;10.014;2023-05-10T13:52:07;18.90;99.90
46508;DHT22;32223;53.654;10.014;2023-05-10T13:54:39;18.70;99.90
46508;DHT22;32223;53.654;10.014;2023-05-10T13:57:05;18.70;99.90
46508;DHT22;32223;53.654;10.014;2023-05-10T13:59:31;18.50;99.90
46508;DHT22;32223;53.654;10.014;2023-05-10T14:01:57;18.30;99.90
46508;DHT22;32223;53.654;10.014;2023-05-10T14:04:23;18.10;99.90
46508;DHT22;32223;53.654;10.014;2023-05-10T14:06:49;18.00;99.90
46508;DHT22;32223;53.654;10.014;2023-05-10T14:09:14;17.90;99.90
46508;DHT22;32223;53.654;10.014;2023-05-10T14:11:40;17.70;99.90
46508;DHT22;32223;53.654;10.014;2023-05-10T14:14:09;17.60;99.90
46508;DHT22;32223;53.654;10.014;2023-05-10T14:16:34;17.50;99.90
46508;DHT22;32223;53.654;10.014;2023-05-10T14:19:00;17.40;99.90
46508;DHT22;32223;53.654;10.014;2023-05-10T14:21:26;17.40;99.90
46508;DHT22;32223;53.654;10.014;2023-05-10T14:23:54;17.40;99.90
46508;DHT22;32223;53.654;10.014;2023-05-10T14:26:19;17.40;99.90
46508;DHT22;32223;53.654;10.014;2023-05-10T14:28:46;17.30;99.90
46508;DHT22;32223;53.654;10.014;2023-05-10T14:31:11;17.40;99.90
46508;DHT22;32223;53.654;10.014;2023-05-10T14:33:37;17.40;99.90
46508;DHT22;32223;53.654;10.014;2023-05-10T14:36:03;17.70;99.90
46508;DHT22;32223;53.654;10.014;2023-05-10T14:38:29;17.80;99.90
46508;DHT22;32223;53.654;10.014;2023-05-10T14:40:55;17.80;99.90
46508;DHT22;32223;53.654;10.014;2023-05-10T14:43:20;17.90;99.90
46508;DHT22;32223;53.654;10.014;2023-05-10T14:45:46;18.00;99.90
46508;DHT22;32223;53.654;10.014;2023-05-10T14:48:12;18.10;99.90
46508;DHT22;32223;53.654;10.014;2023-05-10T14:50:41;18.10;99.90
46508;DHT22;32223;53.654;10.014;2023-05-10T14:53:06;18.10;99.90
46508;DHT22;32223;53.654;10.014;2023-05-10T14:55:32;18.00;99.90
46508;DHT22;32223;53.654;10.014;2023-05-10T14:57:58;17.80;99.90
46508;DHT22;32223;53.654;10.014;2023-05-10T15:00:23;17.80;99.90
46508;DHT22;32223;53.654;10.014;2023-05-10T15:02:49;17.90;99.90
46508;DHT22;32223;53.654;10.014;2023-05-10T15:05:15;18.10;99.90
46508;DHT22;32223;53.654;10.014;2023-05-10T15:07:41;18.20;99.90
46508;DHT22;32223;53.654;10.014;2023-05-10T15:10:09;18.30;99.90
46508;DHT22;32223;53.654;10.014;2023-05-10T15:12:35;18.40;99.90
46508;DHT22;32223;53.654;10.014;2023-05-10T15:15:00;18.30;99.90
46508;DHT22;32223;53.654;10.014;2023-05-10T15:17:26;18.20;99.90
46508;DHT22;32223;53.654;10.014;2023-05-10T15:19:52;18.20;99.90
46508;DHT22;32223;53.654;10.014;2023-05-10T15:22:17;18.40;99.90
46508;DHT22;32223;53.654;10.014;2023-05-10T15:24:43;18.70;99.90
46508;DHT22;32223;53.654;10.014;2023-05-10T15:27:08;18.80;99.90
46508;DHT22;32223;53.654;10.014;2023-05-10T15:29:34;18.90;99.90
46508;DHT22;32223;53.654;10.014;2023-05-10T15:32:01;19.00;99.90
46508;DHT22;32223;53.654;10.014;2023-05-10T15:34:28;19.20;99.90
46508;DHT22;32223;53.654;10.014;2023-05-10T15:36:53;19.30;99.90
46508;DHT22;32223;53.654;10.014;2023-05-10T15:39:19;19.30;99.90
46508;DHT22;32223;53.654;10.014;2023-05-10T15:41:45;19.10;99.90
46508;DHT22;32223;53.654;10.014;2023-05-10T15:44:11;19.10;99.90
46508;DHT22;32223;53.654;10.014;2023-05-10T15:46:36;19.00;99.90
46508;DHT22;32223;53.654;10.014;2023-05-10T15:49:03;19.00;99.90
46508;DHT22;32223;53.654;10.014;2023-05-10T15:51:29;18.90;99.90